sensor_id;sensor_type;location;lat;lon;timestamp;P1;durP1;ratioP1;P2;durP2;ratioP2
15340;SDS011;7770;52.158;5.372;2022-11-20T00:02:20;34.70;;;23.37;;
15340;SDS011;7770;52.158;5.372;2022-11-20T00:05:06;29.90;;;22.67;;
15340;SDS011;7770;52.158;5.372;2022-11-20T00:07:53;30.73;;;22.20;;
15340;SDS011;7770;52.158;5.372;2022-11-20T00:10:39;29.77;;;21.27;;
15340;SDS011;7770;52.158;5.372;2022-11-20T00:13:26;28.63;;;21.03;;
15340;SDS011;7770;52.158;5.372;2022-11-20T00:16:12;33.63;;;23.07;;
15340;SDS011;7770;52.158;5.372;2022-11-20T00:19:01;32.47;;;21.73;;
15340;SDS011;7770;52.158;5.372;2022-11-20T00:21:47;28.97;;;20.73;;
15340;SDS011;7770;52.158;5.372;2022-11-20T00:24:36;30.70;;;21.47;;
15340;SDS011;7770;52.158;5.372;2022-11-20T00:27:22;30.37;;;22.03;;
15340;SDS011;7770;52.158;5.372;2022-11-20T00:30:09;33.70;;;23.77;;
15340;SDS011;7770;52.158;5.372;2022-11-20T00:32:56;35.20;;;23.67;;
15340;SDS011;7770;52.158;5.372;2022-11-20T00:35:43;36.13;;;24.63;;
15340;SDS011;7770;52.158;5.372;2022-11-20T00:38:29;36.27;;;23.30;;
15340;SDS011;7770;52.158;5.372;2022-11-20T00:41:16;33.70;;;23.87;;
15340;SDS011;7770;52.158;5.372;2022-11-20T00:44:02;36.67;;;24.17;;
15340;SDS011;7770;52.158;5.372;2022-11-20T00:46:48;33.77;;;23.90;;
15340;SDS011;7770;52.158;5.372;2022-11-20T00:49:34;34.30;;;24.00;;
15340;SDS011;7770;52.158;5.372;2022-11-20T00:52:20;34.83;;;23.23;;
15340;SDS011;7770;52.158;5.372;2022-11-20T00:55:06;34.57;;;24.83;;
15340;SDS011;7770;52.158;5.372;2022-11-20T00:57:52;33.57;;;24.23;;
15340;SDS011;7770;52.158;5.372;2022-11-20T01:00:38;36.80;;;24.60;;
15340;SDS011;7770;52.158;5.372;2022-11-20T01:03:24;34.93;;;25.53;;
15340;SDS011;7770;52.158;5.372;2022-11-20T01:06:15;34.27;;;24.53;;
15340;SDS011;7770;52.158;5.372;2022-11-20T01:09:04;33.13;;;23.30;;
15340;SDS011;7770;52.158;5.372;2022-11-20T01:11:54;33.87;;;24.53;;
15340;SDS011;7770;52.158;5.372;2022-11-20T01:14:41;34.53;;;24.17;;
15340;SDS011;7770;52.158;5.372;2022-11-20T01:17:27;36.17;;;25.10;;
15340;SDS011;7770;52.158;5.372;2022-11-20T01:20:13;36.83;;;25.53;;
15340;SDS011;7770;52.158;5.372;2022-11-20T01:22:59;36.60;;;24.70;;
15340;SDS011;7770;52.158;5.372;2022-11-20T01:25:45;35.87;;;24.80;;
15340;SDS011;7770;52.158;5.372;2022-11-20T01:28:31;33.73;;;23.70;;
15340;SDS011;7770;52.158;5.372;2022-11-20T01:31:18;33.87;;;23.30;;
15340;SDS011;7770;52.158;5.372;2022-11-20T01:34:12;33.13;;;24.20;;
15340;SDS011;7770;52.158;5.372;2022-11-20T01:37:01;33.77;;;22.67;;
15340;SDS011;7770;52.158;5.372;2022-11-20T01:39:47;36.93;;;25.00;;
15340;SDS011;7770;52.158;5.372;2022-11-20T01:42:33;35.33;;;23.23;;
15340;SDS011;7770;52.158;5.372;2022-11-20T01:45:50;37.97;;;24.07;;
15340;SDS011;7770;52.158;5.372;2022-11-20T01:51:58;34.17;;;23.93;;
15340;SDS011;7770;52.158;5.372;2022-11-20T01:55:01;32.63;;;23.37;;
15340;SDS011;7770;52.158;5.372;2022-11-20T01:57:53;34.97;;;23.93;;
15340;SDS011;7770;52.158;5.372;2022-11-20T02:00:40;35.07;;;23.70;;
15340;SDS011;7770;52.158;5.372;2022-11-20T02:03:26;35.27;;;23.47;;
15340;SDS011;7770;52.158;5.372;2022-11-20T02:06:15;33.40;;;23.17;;
15340;SDS011;7770;52.158;5.372;2022-11-20T02:09:11;31.20;;;22.47;;
15340;SDS011;7770;52.158;5.372;2022-11-20T02:11:59;32.13;;;22.27;;
15340;SDS011;7770;52.158;5.372;2022-11-20T02:14:46;30.13;;;21.20;;
15340;SDS011;7770;52.158;5.372;2022-11-20T02:17:32;31.43;;;22.50;;
15340;SDS011;7770;52.158;5.372;2022-11-20T02:20:18;32.53;;;20.97;;
15340;SDS011;7770;52.158;5.372;2022-11-20T02:26:12;33.27;;;21.40;;
15340;SDS011;7770;52.158;5.372;2022-11-20T02:29:01;32.07;;;21.47;;
15340;SDS011;7770;52.158;5.372;2022-11-20T02:31:48;30.77;;;21.00;;
15340;SDS011;7770;52.158;5.372;2022-11-20T02:34:34;30.53;;;20.57;;
15340;SDS011;7770;52.158;5.372;2022-11-20T02:37:20;30.07;;;20.87;;
15340;SDS011;7770;52.158;5.372;2022-11-20T02:40:07;37.37;;;24.13;;
15340;SDS011;7770;52.158;5.372;2022-11-20T02:42:57;34.67;;;22.43;;
15340;SDS011;7770;52.158;5.372;2022-11-20T02:45:43;32.37;;;22.30;;
15340;SDS011;7770;52.158;5.372;2022-11-20T02:48:29;35.87;;;22.83;;
15340;SDS011;7770;52.158;5.372;2022-11-20T02:51:15;30.23;;;21.17;;
15340;SDS011;7770;52.158;5.372;2022-11-20T02:54:01;31.53;;;21.47;;
15340;SDS011;7770;52.158;5.372;2022-11-20T02:56:47;32.00;;;22.50;;
15340;SDS011;7770;52.158;5.372;2022-11-20T02:59:33;34.00;;;22.07;;
15340;SDS011;7770;52.158;5.372;2022-11-20T03:02:20;31.20;;;21.53;;
15340;SDS011;7770;52.158;5.372;2022-11-20T03:05:06;29.77;;;21.90;;
15340;SDS011;7770;52.158;5.372;2022-11-20T03:07:52;33.83;;;22.43;;
15340;SDS011;7770;52.158;5.372;2022-11-20T03:10:38;32.43;;;21.80;;
15340;SDS011;7770;52.158;5.372;2022-11-20T03:13:24;32.63;;;22.30;;
15340;SDS011;7770;52.158;5.372;2022-11-20T03:16:14;32.17;;;22.43;;
15340;SDS011;7770;52.158;5.372;2022-11-20T03:19:03;29.57;;;21.37;;
15340;SDS011;7770;52.158;5.372;2022-11-20T03:21:49;30.20;;;21.10;;
15340;SDS011;7770;52.158;5.372;2022-11-20T03:24:35;31.60;;;20.53;;
15340;SDS011;7770;52.158;5.372;2022-11-20T03:27:21;30.53;;;20.97;;
15340;SDS011;7770;52.158;5.372;2022-11-20T03:30:08;29.13;;;20.17;;
15340;SDS011;7770;52.158;5.372;2022-11-20T03:32:54;28.13;;;20.23;;
15340;SDS011;7770;52.158;5.372;2022-11-20T03:35:40;30.17;;;20.23;;
15340;SDS011;7770;52.158;5.372;2022-11-20T03:38:28;30.17;;;20.67;;
15340;SDS011;7770;52.158;5.372;2022-11-20T03:41:17;31.10;;;21.07;;
15340;SDS011;7770;52.158;5.372;2022-11-20T03:44:07;32.47;;;21.63;;
15340;SDS011;7770;52.158;5.372;2022-11-20T03:46:55;27.87;;;20.10;;
15340;SDS011;7770;52.158;5.372;2022-11-20T03:49:41;31.07;;;20.60;;
15340;SDS011;7770;52.158;5.372;2022-11-20T03:52:27;30.77;;;19.97;;
15340;SDS011;7770;52.158;5.372;2022-11-20T03:55:13;30.77;;;20.70;;
15340;SDS011;7770;52.158;5.372;2022-11-20T03:57:59;30.17;;;19.93;;
15340;SDS011;7770;52.158;5.372;2022-11-20T04:00:45;29.83;;;19.87;;
15340;SDS011;7770;52.158;5.372;2022-11-20T04:03:31;27.23;;;19.00;;
15340;SDS011;7770;52.158;5.372;2022-11-20T04:06:20;30.63;;;19.90;;
15340;SDS011;7770;52.158;5.372;2022-11-20T04:09:12;29.40;;;19.87;;
15340;SDS011;7770;52.158;5.372;2022-11-20T04:11:58;28.07;;;20.40;;
15340;SDS011;7770;52.158;5.372;2022-11-20T04:14:44;27.20;;;19.37;;
15340;SDS011;7770;52.158;5.372;2022-11-20T04:17:30;30.27;;;20.90;;
15340;SDS011;7770;52.158;5.372;2022-11-20T04:20:16;27.47;;;19.70;;
15340;SDS011;7770;52.158;5.372;2022-11-20T04:23:03;26.93;;;18.87;;
15340;SDS011;7770;52.158;5.372;2022-11-20T04:25:49;29.77;;;19.27;;
15340;SDS011;7770;52.158;5.372;2022-11-20T04:28:35;29.87;;;19.73;;
15340;SDS011;7770;52.158;5.372;2022-11-20T04:31:23;24.63;;;18.07;;
15340;SDS011;7770;52.158;5.372;2022-11-20T04:34:15;26.30;;;18.40;;
15340;SDS011;7770;52.158;5.372;2022-11-20T04:37:01;29.00;;;19.40;;
15340;SDS011;7770;52.158;5.372;2022-11-20T04:39:47;27.53;;;18.93;;
15340;SDS011;7770;52.158;5.372;2022-11-20T04:42:33;27.60;;;19.43;;
15340;SDS011;7770;52.158;5.372;2022-11-20T04:45:19;32.13;;;21.17;;
15340;SDS011;7770;52.158;5.372;2022-11-20T04:48:05;28.60;;;20.40;;
15340;SDS011;7770;52.158;5.372;2022-11-20T04:50:51;29.47;;;20.90;;
15340;SDS011;7770;52.158;5.372;2022-11-20T04:53:37;27.13;;;19.70;;
15340;SDS011;7770;52.158;5.372;2022-11-20T04:56:23;31.93;;;21.43;;
15340;SDS011;7770;52.158;5.372;2022-11-20T04:59:10;31.07;;;21.17;;
15340;SDS011;7770;52.158;5.372;2022-11-20T05:01:56;31.70;;;21.33;;
15340;SDS011;7770;52.158;5.372;2022-11-20T05:04:42;29.63;;;19.93;;
15340;SDS011;7770;52.158;5.372;2022-11-20T05:07:27;32.17;;;21.20;;
15340;SDS011;7770;52.158;5.372;2022-11-20T05:10:14;30.20;;;20.33;;
15340;SDS011;7770;52.158;5.372;2022-11-20T05:13:00;28.20;;;20.03;;
15340;SDS011;7770;52.158;5.372;2022-11-20T05:15:46;28.90;;;19.10;;
15340;SDS011;7770;52.158;5.372;2022-11-20T05:18:33;26.73;;;19.27;;
15340;SDS011;7770;52.158;5.372;2022-11-20T05:21:20;26.47;;;19.30;;
15340;SDS011;7770;52.158;5.372;2022-11-20T05:24:07;30.70;;;20.17;;
15340;SDS011;7770;52.158;5.372;2022-11-20T05:26:53;32.77;;;20.60;;
15340;SDS011;7770;52.158;5.372;2022-11-20T05:29:39;31.40;;;20.83;;
15340;SDS011;7770;52.158;5.372;2022-11-20T05:32:25;30.33;;;19.67;;
15340;SDS011;7770;52.158;5.372;2022-11-20T05:35:11;32.97;;;21.07;;
15340;SDS011;7770;52.158;5.372;2022-11-20T05:37:57;35.50;;;23.00;;
15340;SDS011;7770;52.158;5.372;2022-11-20T05:40:43;35.30;;;23.70;;
15340;SDS011;7770;52.158;5.372;2022-11-20T05:43:31;31.83;;;22.37;;
15340;SDS011;7770;52.158;5.372;2022-11-20T05:46:21;33.03;;;21.67;;
15340;SDS011;7770;52.158;5.372;2022-11-20T05:49:08;35.57;;;22.73;;
15340;SDS011;7770;52.158;5.372;2022-11-20T05:51:54;32.33;;;22.33;;
15340;SDS011;7770;52.158;5.372;2022-11-20T05:54:40;34.03;;;22.93;;
15340;SDS011;7770;52.158;5.372;2022-11-20T05:57:26;33.30;;;22.67;;
15340;SDS011;7770;52.158;5.372;2022-11-20T06:00:12;31.90;;;22.13;;
15340;SDS011;7770;52.158;5.372;2022-11-20T06:02:58;33.50;;;22.83;;
15340;SDS011;7770;52.158;5.372;2022-11-20T06:05:44;34.27;;;22.23;;
15340;SDS011;7770;52.158;5.372;2022-11-20T06:08:31;29.80;;;22.13;;
15340;SDS011;7770;52.158;5.372;2022-11-20T06:11:17;33.40;;;22.77;;
15340;SDS011;7770;52.158;5.372;2022-11-20T06:14:04;32.83;;;22.77;;
15340;SDS011;7770;52.158;5.372;2022-11-20T06:16:50;34.50;;;23.20;;
15340;SDS011;7770;52.158;5.372;2022-11-20T06:19:36;31.90;;;21.60;;
15340;SDS011;7770;52.158;5.372;2022-11-20T06:22:22;33.27;;;22.93;;
15340;SDS011;7770;52.158;5.372;2022-11-20T06:25:08;34.67;;;24.03;;
15340;SDS011;7770;52.158;5.372;2022-11-20T06:27:54;33.10;;;22.67;;
15340;SDS011;7770;52.158;5.372;2022-11-20T06:30:44;38.70;;;24.97;;
15340;SDS011;7770;52.158;5.372;2022-11-20T06:33:31;34.90;;;23.23;;
15340;SDS011;7770;52.158;5.372;2022-11-20T06:36:18;37.60;;;24.63;;
15340;SDS011;7770;52.158;5.372;2022-11-20T06:39:06;36.90;;;25.67;;
15340;SDS011;7770;52.158;5.372;2022-11-20T06:41:53;35.80;;;24.27;;
15340;SDS011;7770;52.158;5.372;2022-11-20T06:44:39;35.03;;;23.83;;
15340;SDS011;7770;52.158;5.372;2022-11-20T06:47:25;36.30;;;24.50;;
15340;SDS011;7770;52.158;5.372;2022-11-20T06:50:11;37.33;;;25.90;;
15340;SDS011;7770;52.158;5.372;2022-11-20T06:53:00;35.07;;;22.80;;
15340;SDS011;7770;52.158;5.372;2022-11-20T06:55:48;35.10;;;23.83;;
15340;SDS011;7770;52.158;5.372;2022-11-20T06:58:36;34.03;;;23.97;;
15340;SDS011;7770;52.158;5.372;2022-11-20T07:01:22;32.83;;;23.10;;
15340;SDS011;7770;52.158;5.372;2022-11-20T07:04:08;33.30;;;22.90;;
15340;SDS011;7770;52.158;5.372;2022-11-20T07:06:54;33.53;;;23.47;;
15340;SDS011;7770;52.158;5.372;2022-11-20T07:09:40;36.77;;;25.50;;
15340;SDS011;7770;52.158;5.372;2022-11-20T07:12:26;32.07;;;22.37;;
15340;SDS011;7770;52.158;5.372;2022-11-20T07:15:12;36.10;;;24.97;;
15340;SDS011;7770;52.158;5.372;2022-11-20T07:17:59;37.50;;;25.03;;
15340;SDS011;7770;52.158;5.372;2022-11-20T07:20:46;38.03;;;24.43;;
15340;SDS011;7770;52.158;5.372;2022-11-20T07:23:32;36.97;;;24.67;;
15340;SDS011;7770;52.158;5.372;2022-11-20T07:26:18;38.07;;;25.40;;
15340;SDS011;7770;52.158;5.372;2022-11-20T07:29:04;36.43;;;24.20;;
15340;SDS011;7770;52.158;5.372;2022-11-20T07:31:50;34.17;;;24.00;;
15340;SDS011;7770;52.158;5.372;2022-11-20T07:34:36;33.03;;;22.77;;
15340;SDS011;7770;52.158;5.372;2022-11-20T07:37:22;35.67;;;25.07;;
15340;SDS011;7770;52.158;5.372;2022-11-20T07:40:09;33.00;;;23.47;;
15340;SDS011;7770;52.158;5.372;2022-11-20T07:42:55;36.77;;;24.60;;
15340;SDS011;7770;52.158;5.372;2022-11-20T07:45:42;36.37;;;24.13;;
15340;SDS011;7770;52.158;5.372;2022-11-20T07:48:28;37.63;;;25.63;;
15340;SDS011;7770;52.158;5.372;2022-11-20T07:51:14;31.03;;;22.10;;
15340;SDS011;7770;52.158;5.372;2022-11-20T07:54:00;34.13;;;24.90;;
15340;SDS011;7770;52.158;5.372;2022-11-20T07:56:46;37.83;;;26.83;;
15340;SDS011;7770;52.158;5.372;2022-11-20T07:59:33;40.90;;;30.07;;
15340;SDS011;7770;52.158;5.372;2022-11-20T08:02:19;36.27;;;30.20;;
15340;SDS011;7770;52.158;5.372;2022-11-20T08:05:05;36.30;;;24.37;;
15340;SDS011;7770;52.158;5.372;2022-11-20T08:07:53;26.83;;;20.57;;
15340;SDS011;7770;52.158;5.372;2022-11-20T08:10:39;27.40;;;21.97;;
15340;SDS011;7770;52.158;5.372;2022-11-20T08:13:25;30.20;;;23.33;;
15340;SDS011;7770;52.158;5.372;2022-11-20T08:16:29;30.83;;;22.60;;
15340;SDS011;7770;52.158;5.372;2022-11-20T08:19:16;30.83;;;22.97;;
15340;SDS011;7770;52.158;5.372;2022-11-20T08:22:03;29.93;;;21.67;;
15340;SDS011;7770;52.158;5.372;2022-11-20T08:24:49;31.87;;;24.57;;
15340;SDS011;7770;52.158;5.372;2022-11-20T08:27:35;27.77;;;21.20;;
15340;SDS011;7770;52.158;5.372;2022-11-20T08:30:22;34.67;;;24.20;;
15340;SDS011;7770;52.158;5.372;2022-11-20T08:33:08;33.23;;;24.83;;
15340;SDS011;7770;52.158;5.372;2022-11-20T08:35:58;31.80;;;24.67;;
15340;SDS011;7770;52.158;5.372;2022-11-20T08:38:49;31.27;;;22.57;;
15340;SDS011;7770;52.158;5.372;2022-11-20T08:41:40;33.80;;;23.13;;
15340;SDS011;7770;52.158;5.372;2022-11-20T08:44:26;31.67;;;22.37;;
15340;SDS011;7770;52.158;5.372;2022-11-20T08:47:12;32.33;;;23.17;;
15340;SDS011;7770;52.158;5.372;2022-11-20T08:49:58;30.47;;;23.20;;
15340;SDS011;7770;52.158;5.372;2022-11-20T08:52:44;35.30;;;24.13;;
15340;SDS011;7770;52.158;5.372;2022-11-20T08:55:30;33.83;;;24.43;;
15340;SDS011;7770;52.158;5.372;2022-11-20T08:58:16;33.87;;;22.97;;
15340;SDS011;7770;52.158;5.372;2022-11-20T09:01:02;33.67;;;23.63;;
15340;SDS011;7770;52.158;5.372;2022-11-20T09:03:49;36.80;;;24.50;;
15340;SDS011;7770;52.158;5.372;2022-11-20T09:06:35;32.57;;;23.17;;
15340;SDS011;7770;52.158;5.372;2022-11-20T09:09:21;33.90;;;22.13;;
15340;SDS011;7770;52.158;5.372;2022-11-20T09:12:07;36.30;;;25.87;;
15340;SDS011;7770;52.158;5.372;2022-11-20T09:14:53;34.73;;;24.57;;
15340;SDS011;7770;52.158;5.372;2022-11-20T09:17:39;31.57;;;22.10;;
15340;SDS011;7770;52.158;5.372;2022-11-20T09:20:25;36.70;;;25.30;;
15340;SDS011;7770;52.158;5.372;2022-11-20T09:23:14;32.00;;;23.47;;
15340;SDS011;7770;52.158;5.372;2022-11-20T09:26:01;56.47;;;37.57;;
15340;SDS011;7770;52.158;5.372;2022-11-20T09:28:49;46.20;;;33.80;;
15340;SDS011;7770;52.158;5.372;2022-11-20T09:31:35;38.23;;;27.03;;
15340;SDS011;7770;52.158;5.372;2022-11-20T09:34:21;39.87;;;27.00;;
15340;SDS011;7770;52.158;5.372;2022-11-20T09:37:07;44.87;;;29.40;;
15340;SDS011;7770;52.158;5.372;2022-11-20T09:39:53;34.97;;;25.03;;
15340;SDS011;7770;52.158;5.372;2022-11-20T09:42:40;36.87;;;25.87;;
15340;SDS011;7770;52.158;5.372;2022-11-20T09:49:11;45.60;;;32.67;;
15340;SDS011;7770;52.158;5.372;2022-11-20T09:52:30;43.80;;;32.00;;
15340;SDS011;7770;52.158;5.372;2022-11-20T09:55:35;45.77;;;34.37;;
15340;SDS011;7770;52.158;5.372;2022-11-20T09:58:25;42.10;;;33.23;;
15340;SDS011;7770;52.158;5.372;2022-11-20T10:01:21;35.03;;;25.87;;
15340;SDS011;7770;52.158;5.372;2022-11-20T10:04:13;31.37;;;24.87;;
15340;SDS011;7770;52.158;5.372;2022-11-20T10:10:14;33.43;;;24.83;;
15340;SDS011;7770;52.158;5.372;2022-11-20T10:13:17;34.20;;;23.33;;
15340;SDS011;7770;52.158;5.372;2022-11-20T10:23:03;34.53;;;26.27;;
15340;SDS011;7770;52.158;5.372;2022-11-20T10:29:15;32.03;;;24.17;;
15340;SDS011;7770;52.158;5.372;2022-11-20T10:32:11;34.67;;;25.07;;
15340;SDS011;7770;52.158;5.372;2022-11-20T10:38:14;33.97;;;25.83;;
15340;SDS011;7770;52.158;5.372;2022-11-20T10:41:09;32.20;;;24.70;;
15340;SDS011;7770;52.158;5.372;2022-11-20T10:44:15;34.70;;;26.40;;
15340;SDS011;7770;52.158;5.372;2022-11-20T10:47:25;35.53;;;27.03;;
15340;SDS011;7770;52.158;5.372;2022-11-20T10:50:14;36.83;;;27.43;;
15340;SDS011;7770;52.158;5.372;2022-11-20T10:53:07;41.33;;;29.43;;
15340;SDS011;7770;52.158;5.372;2022-11-20T10:59:38;43.50;;;30.30;;
15340;SDS011;7770;52.158;5.372;2022-11-20T11:02:41;40.90;;;30.00;;
15340;SDS011;7770;52.158;5.372;2022-11-20T11:08:26;39.20;;;30.47;;
15340;SDS011;7770;52.158;5.372;2022-11-20T11:11:23;39.67;;;30.03;;
15340;SDS011;7770;52.158;5.372;2022-11-20T11:14:14;45.17;;;31.73;;
15340;SDS011;7770;52.158;5.372;2022-11-20T11:17:01;39.00;;;29.83;;
15340;SDS011;7770;52.158;5.372;2022-11-20T11:19:56;42.90;;;30.83;;
15340;SDS011;7770;52.158;5.372;2022-11-20T11:22:54;38.30;;;29.23;;
15340;SDS011;7770;52.158;5.372;2022-11-20T11:25:55;40.03;;;30.73;;
15340;SDS011;7770;52.158;5.372;2022-11-20T11:28:52;44.77;;;34.07;;
15340;SDS011;7770;52.158;5.372;2022-11-20T11:31:46;45.07;;;34.20;;
15340;SDS011;7770;52.158;5.372;2022-11-20T11:34:32;45.50;;;34.20;;
15340;SDS011;7770;52.158;5.372;2022-11-20T11:37:19;49.53;;;34.20;;
15340;SDS011;7770;52.158;5.372;2022-11-20T11:40:08;50.97;;;35.67;;
15340;SDS011;7770;52.158;5.372;2022-11-20T11:42:57;47.27;;;34.87;;
15340;SDS011;7770;52.158;5.372;2022-11-20T11:45:54;48.03;;;35.70;;
15340;SDS011;7770;52.158;5.372;2022-11-20T11:48:41;48.07;;;35.03;;
15340;SDS011;7770;52.158;5.372;2022-11-20T11:54:51;51.73;;;36.13;;
15340;SDS011;7770;52.158;5.372;2022-11-20T11:57:43;50.27;;;35.23;;
15340;SDS011;7770;52.158;5.372;2022-11-20T12:00:36;57.03;;;38.33;;
15340;SDS011;7770;52.158;5.372;2022-11-20T12:03:39;51.63;;;37.97;;
15340;SDS011;7770;52.158;5.372;2022-11-20T12:06:27;51.77;;;37.07;;
15340;SDS011;7770;52.158;5.372;2022-11-20T12:09:15;55.63;;;39.97;;
15340;SDS011;7770;52.158;5.372;2022-11-20T12:12:05;54.30;;;40.63;;
15340;SDS011;7770;52.158;5.372;2022-11-20T12:15:00;57.67;;;42.53;;
15340;SDS011;7770;52.158;5.372;2022-11-20T12:17:47;58.43;;;41.07;;
15340;SDS011;7770;52.158;5.372;2022-11-20T12:20:35;58.30;;;40.27;;
15340;SDS011;7770;52.158;5.372;2022-11-20T12:30:14;56.53;;;40.67;;
15340;SDS011;7770;52.158;5.372;2022-11-20T12:39:25;55.60;;;42.37;;
15340;SDS011;7770;52.158;5.372;2022-11-20T12:42:29;55.87;;;40.93;;
15340;SDS011;7770;52.158;5.372;2022-11-20T12:49:20;54.73;;;39.27;;
15340;SDS011;7770;52.158;5.372;2022-11-20T12:52:36;55.53;;;41.57;;
15340;SDS011;7770;52.158;5.372;2022-11-20T12:58:43;59.53;;;42.03;;
15340;SDS011;7770;52.158;5.372;2022-11-20T13:07:53;61.80;;;43.10;;
15340;SDS011;7770;52.158;5.372;2022-11-20T13:10:45;57.77;;;41.87;;
15340;SDS011;7770;52.158;5.372;2022-11-20T13:13:56;59.17;;;41.60;;
15340;SDS011;7770;52.158;5.372;2022-11-20T13:16:57;55.57;;;40.87;;
15340;SDS011;7770;52.158;5.372;2022-11-20T13:20:12;60.43;;;42.33;;
15340;SDS011;7770;52.158;5.372;2022-11-20T13:23:01;58.73;;;41.60;;
15340;SDS011;7770;52.158;5.372;2022-11-20T13:25:48;57.80;;;43.13;;
15340;SDS011;7770;52.158;5.372;2022-11-20T13:28:35;60.60;;;43.67;;
15340;SDS011;7770;52.158;5.372;2022-11-20T13:31:24;61.60;;;44.80;;
15340;SDS011;7770;52.158;5.372;2022-11-20T13:34:23;62.90;;;46.80;;
15340;SDS011;7770;52.158;5.372;2022-11-20T13:37:24;60.37;;;45.27;;
15340;SDS011;7770;52.158;5.372;2022-11-20T13:40:22;62.47;;;44.00;;
15340;SDS011;7770;52.158;5.372;2022-11-20T13:43:19;59.67;;;41.83;;
15340;SDS011;7770;52.158;5.372;2022-11-20T13:46:08;68.47;;;50.10;;
15340;SDS011;7770;52.158;5.372;2022-11-20T13:48:55;65.53;;;45.17;;
15340;SDS011;7770;52.158;5.372;2022-11-20T13:51:42;61.57;;;44.70;;
15340;SDS011;7770;52.158;5.372;2022-11-20T13:57:53;70.47;;;47.63;;
15340;SDS011;7770;52.158;5.372;2022-11-20T14:00:58;65.97;;;45.90;;
15340;SDS011;7770;52.158;5.372;2022-11-20T14:03:54;65.50;;;46.23;;
15340;SDS011;7770;52.158;5.372;2022-11-20T14:06:44;67.70;;;47.17;;
15340;SDS011;7770;52.158;5.372;2022-11-20T14:09:32;65.60;;;46.03;;
15340;SDS011;7770;52.158;5.372;2022-11-20T14:12:21;65.17;;;46.87;;
15340;SDS011;7770;52.158;5.372;2022-11-20T14:18:20;70.17;;;47.80;;
15340;SDS011;7770;52.158;5.372;2022-11-20T14:21:09;71.20;;;47.73;;
15340;SDS011;7770;52.158;5.372;2022-11-20T14:24:05;69.07;;;48.67;;
15340;SDS011;7770;52.158;5.372;2022-11-20T14:26:55;76.40;;;50.20;;
15340;SDS011;7770;52.158;5.372;2022-11-20T14:29:41;77.03;;;48.50;;
15340;SDS011;7770;52.158;5.372;2022-11-20T14:32:29;68.77;;;49.43;;
15340;SDS011;7770;52.158;5.372;2022-11-20T14:35:21;72.07;;;50.33;;
15340;SDS011;7770;52.158;5.372;2022-11-20T14:38:15;81.87;;;54.33;;
15340;SDS011;7770;52.158;5.372;2022-11-20T14:41:08;70.43;;;48.17;;
15340;SDS011;7770;52.158;5.372;2022-11-20T14:44:02;69.60;;;47.63;;
15340;SDS011;7770;52.158;5.372;2022-11-20T14:46:49;76.50;;;50.77;;
15340;SDS011;7770;52.158;5.372;2022-11-20T14:49:38;68.33;;;48.17;;
15340;SDS011;7770;52.158;5.372;2022-11-20T14:52:25;82.90;;;59.00;;
15340;SDS011;7770;52.158;5.372;2022-11-20T14:55:13;67.67;;;44.10;;
15340;SDS011;7770;52.158;5.372;2022-11-20T14:58:20;77.47;;;51.97;;
15340;SDS011;7770;52.158;5.372;2022-11-20T15:01:13;83.27;;;54.63;;
15340;SDS011;7770;52.158;5.372;2022-11-20T15:04:00;83.10;;;55.90;;
15340;SDS011;7770;52.158;5.372;2022-11-20T15:06:51;103.93;;;72.83;;
15340;SDS011;7770;52.158;5.372;2022-11-20T15:09:40;81.23;;;54.20;;
15340;SDS011;7770;52.158;5.372;2022-11-20T15:12:25;79.10;;;52.47;;
15340;SDS011;7770;52.158;5.372;2022-11-20T15:15:12;82.83;;;53.67;;
15340;SDS011;7770;52.158;5.372;2022-11-20T15:18:04;88.17;;;55.73;;
15340;SDS011;7770;52.158;5.372;2022-11-20T15:20:50;83.23;;;55.67;;
15340;SDS011;7770;52.158;5.372;2022-11-20T15:23:37;76.33;;;52.00;;
15340;SDS011;7770;52.158;5.372;2022-11-20T15:26:24;82.83;;;52.77;;
15340;SDS011;7770;52.158;5.372;2022-11-20T15:29:13;82.40;;;53.50;;
15340;SDS011;7770;52.158;5.372;2022-11-20T15:32:04;87.83;;;57.23;;
15340;SDS011;7770;52.158;5.372;2022-11-20T15:34:50;89.80;;;59.07;;
15340;SDS011;7770;52.158;5.372;2022-11-20T15:37:36;89.47;;;57.73;;
15340;SDS011;7770;52.158;5.372;2022-11-20T15:40:24;87.73;;;57.47;;
15340;SDS011;7770;52.158;5.372;2022-11-20T15:43:10;90.27;;;59.20;;
15340;SDS011;7770;52.158;5.372;2022-11-20T15:45:59;94.50;;;60.03;;
15340;SDS011;7770;52.158;5.372;2022-11-20T15:48:51;87.83;;;53.83;;
15340;SDS011;7770;52.158;5.372;2022-11-20T15:51:41;91.23;;;60.27;;
15340;SDS011;7770;52.158;5.372;2022-11-20T15:54:31;104.47;;;67.47;;
15340;SDS011;7770;52.158;5.372;2022-11-20T15:57:17;103.63;;;65.77;;
15340;SDS011;7770;52.158;5.372;2022-11-20T16:00:03;82.57;;;50.00;;
15340;SDS011;7770;52.158;5.372;2022-11-20T16:02:50;93.30;;;57.13;;
15340;SDS011;7770;52.158;5.372;2022-11-20T16:05:37;88.10;;;55.30;;
15340;SDS011;7770;52.158;5.372;2022-11-20T16:08:23;89.20;;;58.83;;
15340;SDS011;7770;52.158;5.372;2022-11-20T16:11:12;89.27;;;59.70;;
15340;SDS011;7770;52.158;5.372;2022-11-20T16:14:00;84.77;;;52.60;;
15340;SDS011;7770;52.158;5.372;2022-11-20T16:17:05;94.20;;;56.77;;
15340;SDS011;7770;52.158;5.372;2022-11-20T16:19:51;92.23;;;58.20;;
15340;SDS011;7770;52.158;5.372;2022-11-20T16:22:37;90.10;;;57.27;;
15340;SDS011;7770;52.158;5.372;2022-11-20T16:25:23;84.67;;;56.77;;
15340;SDS011;7770;52.158;5.372;2022-11-20T16:28:09;89.10;;;57.43;;
15340;SDS011;7770;52.158;5.372;2022-11-20T16:30:56;92.77;;;61.03;;
15340;SDS011;7770;52.158;5.372;2022-11-20T16:33:42;72.57;;;46.13;;
15340;SDS011;7770;52.158;5.372;2022-11-20T16:36:34;92.03;;;59.07;;
15340;SDS011;7770;52.158;5.372;2022-11-20T16:39:20;94.20;;;63.17;;
15340;SDS011;7770;52.158;5.372;2022-11-20T16:42:06;104.37;;;71.47;;
15340;SDS011;7770;52.158;5.372;2022-11-20T16:44:52;102.13;;;73.13;;
15340;SDS011;7770;52.158;5.372;2022-11-20T16:47:38;110.97;;;77.63;;
15340;SDS011;7770;52.158;5.372;2022-11-20T16:50:24;86.60;;;58.90;;
15340;SDS011;7770;52.158;5.372;2022-11-20T16:53:10;125.27;;;86.93;;
15340;SDS011;7770;52.158;5.372;2022-11-20T16:55:56;85.30;;;59.83;;
15340;SDS011;7770;52.158;5.372;2022-11-20T16:58:43;76.37;;;48.33;;
15340;SDS011;7770;52.158;5.372;2022-11-20T17:01:33;48.20;;;30.97;;
15340;SDS011;7770;52.158;5.372;2022-11-20T17:04:22;40.37;;;24.63;;
15340;SDS011;7770;52.158;5.372;2022-11-20T17:07:08;69.67;;;50.80;;
15340;SDS011;7770;52.158;5.372;2022-11-20T17:09:55;57.40;;;38.40;;
15340;SDS011;7770;52.158;5.372;2022-11-20T17:12:41;58.40;;;38.70;;
15340;SDS011;7770;52.158;5.372;2022-11-20T17:15:27;69.70;;;46.47;;
15340;SDS011;7770;52.158;5.372;2022-11-20T17:18:13;71.43;;;51.77;;
15340;SDS011;7770;52.158;5.372;2022-11-20T17:20:59;72.13;;;49.40;;
15340;SDS011;7770;52.158;5.372;2022-11-20T17:23:49;68.33;;;47.20;;
15340;SDS011;7770;52.158;5.372;2022-11-20T17:26:35;77.00;;;53.90;;
15340;SDS011;7770;52.158;5.372;2022-11-20T17:29:23;60.77;;;37.37;;
15340;SDS011;7770;52.158;5.372;2022-11-20T17:32:09;82.50;;;53.73;;
15340;SDS011;7770;52.158;5.372;2022-11-20T17:34:55;73.53;;;52.17;;
15340;SDS011;7770;52.158;5.372;2022-11-20T17:37:43;66.03;;;37.50;;
15340;SDS011;7770;52.158;5.372;2022-11-20T17:40:29;84.23;;;58.83;;
15340;SDS011;7770;52.158;5.372;2022-11-20T17:43:15;84.17;;;58.80;;
15340;SDS011;7770;52.158;5.372;2022-11-20T17:46:12;81.23;;;55.07;;
15340;SDS011;7770;52.158;5.372;2022-11-20T17:49:03;82.33;;;51.93;;
15340;SDS011;7770;52.158;5.372;2022-11-20T17:51:49;79.63;;;54.60;;